Terminal Aerodrome Forecast
Issued by NWS

Current Version | Previous Version | Text Only | Print | Product List | Glossary On
Versions: 1 2 3 4 5 6 7 8 9 10 11 12 13 14 15 16 17 18 19 20 21 22 23 24 25 26
000
FTAK31 PAFA 110540
TAFAMC
TAF
PAMC 110540Z 1106/1206 09008G16KT P6SM BKN060 OVC120
     FM110900 VRB05KT P6SM VCSH BKN060 OVC080
     FM111800 18006KT P6SM VCSH BKN050=

USA.gov is the U.S. government's official web portal to all federal, state and local government web resources and services.